Time;durP1;ratioP1;P1;durP2;ratioP2;P2;SDS_P1;SDS_P2;PMS_P1;PMS_P2;Temp;Humidity;BMP_temperature;BMP_pressure;BME280_temperature;BME280_humidity;BME280_pressure;Samples;Min_cycle;Max_cycle;Signal;HPM_P1;HPM_P2
2022/02/28 00:00:07;;;;;;;14.63;5.20;;;;;;;;;;4959281;28;20035;-63
2022/02/28 00:02:32;;;;;;;9.23;4.50;;;;;;;;;;4958581;28;20041;-62
2022/02/28 00:05:05;;;;;;;10.10;4.47;;;;;;;;;;4959059;28;20161;-63
2022/02/28 00:07:31;;;;;;;21.95;5.18;;;;;;;;;;4945587;28;20042;-64
2022/02/28 00:09:56;;;;;;;10.85;4.97;;;;;;;;;;4948032;28;20996;-63
2022/02/28 00:12:21;;;;;;;7.88;4.20;;;;;;;;;;4941442;28;20030;-64
2022/02/28 00:14:47;;;;;;;12.20;4.93;;;;;;;;;;4948409;28;21868;-62
2022/02/28 00:17:17;;;;;;;10.73;5.03;;;;;;;;;;4917041;28;20042;-64
2022/02/28 00:19:45;;;;;;;8.73;4.38;;;;;;;;;;4958681;28;20208;-64
2022/02/28 00:22:13;;;;;;;23.58;4.95;;;;;;;;;;4932691;28;20828;-65
2022/02/28 00:24:41;;;;;;;9.75;4.28;;;;;;;;;;4947049;28;20035;-62
2022/02/28 00:27:09;;;;;;;11.18;4.72;;;;;;;;;;4945710;28;20035;-63
2022/02/28 00:29:37;;;;;;;13.70;5.03;;;;;;;;;;4959314;28;20046;-61
2022/02/28 00:32:05;;;;;;;13.05;4.90;;;;;;;;;;4945116;28;20038;-62
2022/02/28 00:34:30;;;;;;;10.05;5.10;;;;;;;;;;4959354;28;20045;-61
2022/02/28 00:37:00;;;;;;;9.48;5.00;;;;;;;;;;4944320;28;20069;-62
2022/02/28 00:39:28;;;;;;;11.00;4.68;;;;;;;;;;4947292;28;20058;-63
2022/02/28 00:41:54;;;;;;;12.70;5.18;;;;;;;;;;4943057;28;20031;-61
2022/02/28 00:44:21;;;;;;;16.02;4.97;;;;;;;;;;4947398;28;20496;-63
2022/02/28 00:46:47;;;;;;;10.82;5.32;;;;;;;;;;4940293;28;20030;-63
2022/02/28 00:49:14;;;;;;;13.75;5.05;;;;;;;;;;4944403;28;20039;-63
2022/02/28 00:51:42;;;;;;;16.88;4.95;;;;;;;;;;4943462;28;20489;-63
2022/02/28 00:54:08;;;;;;;9.95;5.47;;;;;;;;;;4961829;28;20041;-63
2022/02/28 00:56:34;;;;;;;11.93;5.07;;;;;;;;;;4957449;28;20035;-62
2022/02/28 00:59:00;;;;;;;16.55;5.53;;;;;;;;;;4959737;28;20120;-63
2022/02/28 01:01:30;;;;;;;13.25;4.93;;;;;;;;;;4945352;28;20129;-63
2022/02/28 01:04:04;;;;;;;10.55;4.78;;;;;;;;;;4959894;28;20039;-63
2022/02/28 01:06:32;;;;;;;15.02;4.32;;;;;;;;;;4948109;28;20158;-64
2022/02/28 01:09:00;;;;;;;13.02;5.03;;;;;;;;;;4946658;28;20059;-63
2022/02/28 01:11:25;;;;;;;14.93;5.10;;;;;;;;;;4943434;28;20049;-63
2022/02/28 01:13:53;;;;;;;10.68;4.00;;;;;;;;;;4959762;28;20042;-62
2022/02/28 01:16:21;;;;;;;14.43;5.05;;;;;;;;;;4938177;28;20581;-61
2022/02/28 01:18:48;;;;;;;10.02;5.07;;;;;;;;;;4960264;28;20039;-62
2022/02/28 01:21:13;;;;;;;7.32;3.85;;;;;;;;;;4944448;28;20038;-62
2022/02/28 01:23:46;;;;;;;9.75;4.72;;;;;;;;;;4959311;28;20030;-62
2022/02/28 01:26:14;;;;;;;10.40;4.43;;;;;;;;;;4942767;28;20122;-61
2022/02/28 01:28:42;;;;;;;9.60;4.68;;;;;;;;;;4958875;28;20050;-64
2022/02/28 01:31:08;;;;;;;14.95;5.70;;;;;;;;;;4945571;28;22090;-63
2022/02/28 01:33:36;;;;;;;15.63;5.72;;;;;;;;;;4957871;28;20027;-62
2022/02/28 01:36:02;;;;;;;11.52;5.13;;;;;;;;;;4956313;28;20061;-63
2022/02/28 01:38:30;;;;;;;12.02;5.05;;;;;;;;;;4946208;28;20123;-63
2022/02/28 01:40:55;;;;;;;10.35;4.85;;;;;;;;;;4934715;28;20034;-61
2022/02/28 01:43:24;;;;;;;11.70;5.35;;;;;;;;;;4939492;28;22038;-62
2022/02/28 01:45:51;;;;;;;10.38;4.63;;;;;;;;;;4923136;28;20034;-63
2022/02/28 01:48:17;;;;;;;18.38;5.20;;;;;;;;;;4946530;28;20049;-61
2022/02/28 01:50:42;;;;;;;14.95;6.03;;;;;;;;;;4938832;28;20042;-62
2022/02/28 01:53:10;;;;;;;13.05;4.88;;;;;;;;;;4957548;28;20580;-62
2022/02/28 01:55:35;;;;;;;15.07;5.25;;;;;;;;;;4956610;28;20038;-62
2022/02/28 01:58:01;;;;;;;9.57;5.45;;;;;;;;;;4928726;28;20042;-62
2022/02/28 02:00:29;;;;;;;17.05;5.38;;;;;;;;;;4944613;28;20065;-62
2022/02/28 02:02:59;;;;;;;12.65;5.50;;;;;;;;;;4944140;28;20118;-62
2022/02/28 02:05:29;;;;;;;14.88;5.18;;;;;;;;;;4957742;28;20034;-62
2022/02/28 02:07:57;;;;;;;13.95;5.13;;;;;;;;;;4943045;28;20023;-61
2022/02/28 02:10:23;;;;;;;14.63;5.28;;;;;;;;;;4957206;28;20047;-62
2022/02/28 02:12:53;;;;;;;9.65;4.65;;;;;;;;;;4946370;28;20081;-62
2022/02/28 02:15:20;;;;;;;11.90;5.93;;;;;;;;;;4957765;28;20069;-61
2022/02/28 02:17:46;;;;;;;12.43;5.13;;;;;;;;;;4909278;28;20042;-61
2022/02/28 02:20:21;;;;;;;12.70;4.85;;;;;;;;;;4951553;28;20039;-61
2022/02/28 02:23:02;;;;;;;11.18;4.97;;;;;;;;;;4942396;28;20050;-62
2022/02/28 02:25:27;;;;;;;8.65;4.82;;;;;;;;;;4950511;28;20034;-61
2022/02/28 02:27:53;;;;;;;10.40;6.20;;;;;;;;;;4928190;28;20050;-61
2022/02/28 02:30:20;;;;;;;19.33;6.50;;;;;;;;;;4943877;28;20042;-61
2022/02/28 02:32:46;;;;;;;10.10;4.75;;;;;;;;;;4958173;28;20074;-61
2022/02/28 02:35:12;;;;;;;13.85;5.88;;;;;;;;;;4954461;28;20034;-62
2022/02/28 02:37:40;;;;;;;11.55;5.40;;;;;;;;;;4954990;28;20171;-60
2022/02/28 02:40:06;;;;;;;16.02;5.63;;;;;;;;;;4957997;28;20042;-61
2022/02/28 02:42:31;;;;;;;13.75;5.82;;;;;;;;;;4955705;28;20038;-60
2022/02/28 02:44:57;;;;;;;11.00;5.35;;;;;;;;;;4948424;28;20034;-60
2022/02/28 02:47:26;;;;;;;14.73;5.60;;;;;;;;;;4928588;28;20054;-61
2022/02/28 02:49:53;;;;;;;14.90;6.57;;;;;;;;;;4929156;28;21047;-59
2022/02/28 02:52:22;;;;;;;16.85;6.18;;;;;;;;;;4944679;28;20094;-61
2022/02/28 02:54:51;;;;;;;15.88;7.00;;;;;;;;;;4934647;28;20112;-60
2022/02/28 02:57:17;;;;;;;17.20;7.93;;;;;;;;;;4943651;28;20394;-60
2022/02/28 02:59:43;;;;;;;12.95;6.68;;;;;;;;;;4946406;28;20080;-61
2022/02/28 03:02:11;;;;;;;12.65;5.88;;;;;;;;;;4943675;28;20045;-61
2022/02/28 03:04:37;;;;;;;16.45;6.10;;;;;;;;;;4946008;28;20038;-60
2022/02/28 03:07:02;;;;;;;11.68;5.40;;;;;;;;;;4961977;28;20042;-60
2022/02/28 03:09:30;;;;;;;13.95;7.07;;;;;;;;;;4961008;28;20030;-61
2022/02/28 03:11:55;;;;;;;14.43;6.53;;;;;;;;;;4960856;28;20046;-61
2022/02/28 03:14:21;;;;;;;14.93;6.72;;;;;;;;;;4963010;28;20038;-60
2022/02/28 03:16:47;;;;;;;18.02;7.18;;;;;;;;;;4922763;28;20126;-60
2022/02/28 03:19:12;;;;;;;14.85;7.28;;;;;;;;;;4946212;28;20074;-60
2022/02/28 03:21:40;;;;;;;15.15;6.88;;;;;;;;;;4945401;28;20043;-60
2022/02/28 03:24:10;;;;;;;22.85;7.32;;;;;;;;;;4941138;28;20045;-61
2022/02/28 03:26:38;;;;;;;13.98;6.30;;;;;;;;;;4928786;28;20027;-60
2022/02/28 03:29:04;;;;;;;19.27;7.45;;;;;;;;;;4954923;28;20039;-60
2022/02/28 03:31:32;;;;;;;22.52;7.90;;;;;;;;;;4944716;28;20168;-60
2022/02/28 03:33:59;;;;;;;17.10;7.47;;;;;;;;;;4947669;28;20523;-60
2022/02/28 03:36:25;;;;;;;23.35;8.30;;;;;;;;;;4960299;28;20043;-63
2022/02/28 03:38:50;;;;;;;16.63;6.72;;;;;;;;;;4940727;28;20237;-60
2022/02/28 03:41:18;;;;;;;18.08;7.32;;;;;;;;;;4939789;28;20184;-61
2022/02/28 03:43:43;;;;;;;16.20;7.13;;;;;;;;;;4945024;28;20542;-60
2022/02/28 03:46:09;;;;;;;19.45;6.63;;;;;;;;;;4929358;28;20049;-61
2022/02/28 03:48:34;;;;;;;15.93;7.13;;;;;;;;;;4931598;28;20498;-61
2022/02/28 03:51:04;;;;;;;15.82;7.30;;;;;;;;;;4959873;28;20097;-60
2022/02/28 03:53:34;;;;;;;20.20;7.47;;;;;;;;;;4956368;28;20054;-61
2022/02/28 03:56:06;;;;;;;18.00;7.88;;;;;;;;;;4960179;28;20077;-61
2022/02/28 03:58:38;;;;;;;17.73;8.02;;;;;;;;;;4947914;28;20152;-61
2022/02/28 04:01:06;;;;;;;18.75;8.05;;;;;;;;;;4959880;28;20085;-60
2022/02/28 04:03:36;;;;;;;21.95;8.25;;;;;;;;;;4955774;28;20126;-60
2022/02/28 04:06:04;;;;;;;14.43;7.10;;;;;;;;;;4960550;28;20113;-60
2022/02/28 04:08:33;;;;;;;17.10;7.65;;;;;;;;;;4958133;28;20580;-60
2022/02/28 04:11:01;;;;;;;15.18;7.35;;;;;;;;;;4960600;28;20658;-60
2022/02/28 04:13:29;;;;;;;16.13;8.65;;;;;;;;;;4955162;28;20497;-60
2022/02/28 04:15:57;;;;;;;14.85;6.32;;;;;;;;;;4943738;28;20409;-61
2022/02/28 04:18:23;;;;;;;15.15;7.60;;;;;;;;;;4958938;28;20183;-61
2022/02/28 04:20:48;;;;;;;22.30;7.85;;;;;;;;;;4944651;28;20039;-61
2022/02/28 04:23:17;;;;;;;14.35;6.88;;;;;;;;;;4957905;28;20046;-61
2022/02/28 04:25:44;;;;;;;20.88;8.55;;;;;;;;;;4943642;28;20422;-61
2022/02/28 04:28:10;;;;;;;17.90;7.65;;;;;;;;;;4955062;28;20038;-61
2022/02/28 04:30:39;;;;;;;15.13;7.50;;;;;;;;;;4944993;28;20062;-62
2022/02/28 04:33:07;;;;;;;15.40;7.60;;;;;;;;;;4958572;28;20066;-60
2022/02/28 04:35:33;;;;;;;15.82;6.82;;;;;;;;;;4942133;28;20043;-61
2022/02/28 04:38:05;;;;;;;17.50;7.82;;;;;;;;;;4957526;28;20049;-60
2022/02/28 04:40:31;;;;;;;16.63;6.65;;;;;;;;;;4941768;28;20865;-63
2022/02/28 04:43:02;;;;;;;20.75;7.53;;;;;;;;;;4957822;28;20038;-61
2022/02/28 04:45:30;;;;;;;13.35;6.15;;;;;;;;;;4959526;28;20038;-60
2022/02/28 04:47:55;;;;;;;20.02;6.80;;;;;;;;;;4959565;28;20038;-61
2022/02/28 04:50:23;;;;;;;17.05;6.63;;;;;;;;;;4957944;28;20043;-59
2022/02/28 04:52:49;;;;;;;17.08;6.82;;;;;;;;;;4931667;28;20035;-60
2022/02/28 04:55:22;;;;;;;12.52;6.45;;;;;;;;;;4955793;28;20019;-60
2022/02/28 04:57:47;;;;;;;11.63;6.05;;;;;;;;;;4943973;28;20030;-59
2022/02/28 05:00:13;;;;;;;11.15;5.68;;;;;;;;;;4948359;28;20120;-59
2022/02/28 05:02:41;;;;;;;17.63;6.68;;;;;;;;;;4956024;28;20041;-58
2022/02/28 05:05:09;;;;;;;20.23;6.90;;;;;;;;;;4930253;28;20038;-59
2022/02/28 05:07:36;;;;;;;18.65;7.05;;;;;;;;;;4956875;28;20042;-58
2022/02/28 05:10:02;;;;;;;15.13;6.13;;;;;;;;;;4952864;28;20081;-58
2022/02/28 05:12:30;;;;;;;15.88;7.35;;;;;;;;;;4959961;28;20046;-58
2022/02/28 05:14:56;;;;;;;12.20;5.78;;;;;;;;;;4957766;28;20093;-59
2022/02/28 05:17:22;;;;;;;11.65;5.72;;;;;;;;;;4928695;28;20145;-59
2022/02/28 05:19:49;;;;;;;22.13;5.90;;;;;;;;;;4940999;28;20082;-58
2022/02/28 05:22:16;;;;;;;10.07;6.45;;;;;;;;;;4942029;28;20126;-58
2022/02/28 05:24:44;;;;;;;14.13;6.05;;;;;;;;;;4959687;28;20087;-58
2022/02/28 05:27:10;;;;;;;14.02;5.80;;;;;;;;;;4956110;28;20470;-61
2022/02/28 05:29:39;;;;;;;19.95;7.22;;;;;;;;;;4947248;28;20033;-60
2022/02/28 05:32:08;;;;;;;12.50;6.07;;;;;;;;;;4958059;28;20944;-60
2022/02/28 05:34:33;;;;;;;13.18;5.85;;;;;;;;;;4957226;28;20149;-58
2022/02/28 05:37:07;;;;;;;13.90;6.18;;;;;;;;;;4956352;28;20620;-58
2022/02/28 05:39:32;;;;;;;15.68;6.50;;;;;;;;;;4944576;28;20121;-58
2022/02/28 05:42:01;;;;;;;16.17;7.07;;;;;;;;;;4922051;28;20692;-58
2022/02/28 05:44:28;;;;;;;16.23;6.22;;;;;;;;;;4959012;28;20049;-58
2022/02/28 05:46:54;;;;;;;12.93;6.07;;;;;;;;;;4942860;28;20038;-59
2022/02/28 05:49:22;;;;;;;15.40;6.18;;;;;;;;;;4942393;28;20089;-59
2022/02/28 05:51:48;;;;;;;13.85;5.38;;;;;;;;;;4928704;28;20043;-58
2022/02/28 05:54:16;;;;;;;13.23;5.55;;;;;;;;;;4945786;28;20046;-60
2022/02/28 05:56:44;;;;;;;19.63;6.95;;;;;;;;;;4940290;28;22066;-59
2022/02/28 05:59:09;;;;;;;12.63;6.30;;;;;;;;;;4956112;28;20144;-58
2022/02/28 06:01:37;;;;;;;21.90;7.28;;;;;;;;;;4959038;28;20556;-58
2022/02/28 06:04:05;;;;;;;14.68;7.05;;;;;;;;;;4943272;28;20030;-60
2022/02/28 06:06:33;;;;;;;17.10;6.32;;;;;;;;;;4945164;28;20070;-59
2022/02/28 06:09:03;;;;;;;13.57;5.80;;;;;;;;;;4943715;28;20168;-59
2022/02/28 06:11:29;;;;;;;16.85;6.43;;;;;;;;;;4943546;28;20031;-59
2022/02/28 06:13:56;;;;;;;15.55;6.22;;;;;;;;;;4943099;28;20081;-58
2022/02/28 06:16:24;;;;;;;15.23;6.75;;;;;;;;;;4946010;28;20038;-59
2022/02/28 06:18:50;;;;;;;19.98;7.63;;;;;;;;;;4944531;28;20415;-60
2022/02/28 06:21:15;;;;;;;19.23;8.95;;;;;;;;;;4942845;28;20041;-59
2022/02/28 06:23:43;;;;;;;16.58;8.23;;;;;;;;;;4944110;28;20069;-59
2022/02/28 06:26:09;;;;;;;19.40;9.05;;;;;;;;;;4942154;28;20570;-58
2022/02/28 06:28:39;;;;;;;28.27;7.60;;;;;;;;;;4956428;28;20030;-59
2022/02/28 06:31:07;;;;;;;22.90;6.97;;;;;;;;;;4947978;28;20042;-59
2022/02/28 06:33:34;;;;;;;16.13;7.75;;;;;;;;;;4962174;28;20042;-58
2022/02/28 06:36:00;;;;;;;12.40;6.13;;;;;;;;;;4960563;28;20134;-59
2022/02/28 06:38:28;;;;;;;15.40;6.00;;;;;;;;;;4949075;28;20633;-58
2022/02/28 06:40:54;;;;;;;20.02;7.47;;;;;;;;;;4959408;28;20030;-59
2022/02/28 06:43:24;;;;;;;15.25;6.45;;;;;;;;;;4949296;28;20049;-59
2022/02/28 06:45:53;;;;;;;11.32;5.78;;;;;;;;;;4963364;28;20153;-58
2022/02/28 06:48:21;;;;;;;14.32;5.97;;;;;;;;;;4961849;28;20057;-58
2022/02/28 06:50:47;;;;;;;13.25;5.80;;;;;;;;;;4946278;28;20042;-60
2022/02/28 06:53:18;;;;;;;11.40;5.93;;;;;;;;;;4962128;28;20033;-59
2022/02/28 06:55:44;;;;;;;11.55;5.50;;;;;;;;;;4945704;28;20077;-59
2022/02/28 06:58:21;;;;;;;16.55;6.57;;;;;;;;;;4962567;28;20143;-59
2022/02/28 07:00:49;;;;;;;12.60;5.32;;;;;;;;;;4962759;28;20053;-59
2022/02/28 07:03:15;;;;;;;12.52;5.47;;;;;;;;;;4963021;28;20086;-59
2022/02/28 07:05:44;;;;;;;19.60;6.45;;;;;;;;;;4958117;28;20565;-57
2022/02/28 07:08:09;;;;;;;18.55;6.50;;;;;;;;;;4950519;28;20035;-58
2022/02/28 07:10:39;;;;;;;21.58;6.88;;;;;;;;;;4944099;28;20743;-58
2022/02/28 07:13:05;;;;;;;16.40;6.05;;;;;;;;;;4964218;28;20410;-59
2022/02/28 07:15:32;;;;;;;15.77;6.10;;;;;;;;;;4964803;28;20648;-59
2022/02/28 07:18:00;;;;;;;13.35;6.65;;;;;;;;;;4947375;28;20754;-60
2022/02/28 07:20:28;;;;;;;12.75;7.13;;;;;;;;;;4948292;28;20038;-59
2022/02/28 07:22:56;;;;;;;19.40;7.18;;;;;;;;;;4958533;28;20038;-58
2022/02/28 07:25:22;;;;;;;18.20;6.30;;;;;;;;;;4947548;28;20034;-59
2022/02/28 07:27:50;;;;;;;11.00;5.53;;;;;;;;;;4928656;28;20047;-59
2022/02/28 07:30:15;;;;;;;12.23;5.85;;;;;;;;;;4942580;28;20044;-58
2022/02/28 07:32:42;;;;;;;16.00;6.22;;;;;;;;;;4961749;28;20164;-58
2022/02/28 07:35:15;;;;;;;15.45;6.57;;;;;;;;;;4944424;28;20034;-59
2022/02/28 07:37:41;;;;;;;12.63;5.32;;;;;;;;;;4942169;28;21426;-57
2022/02/28 07:40:09;;;;;;;11.95;5.90;;;;;;;;;;4946244;28;20034;-59
2022/02/28 07:42:37;;;;;;;10.88;5.55;;;;;;;;;;4955019;28;20038;-59
2022/02/28 07:45:05;;;;;;;17.48;5.53;;;;;;;;;;4945208;28;20047;-60
2022/02/28 07:47:31;;;;;;;15.02;6.25;;;;;;;;;;4948447;28;20101;-59
2022/02/28 07:49:59;;;;;;;17.05;5.30;;;;;;;;;;4932913;28;20089;-60
2022/02/28 07:52:27;;;;;;;10.18;5.18;;;;;;;;;;4959763;28;20100;-58
2022/02/28 07:54:55;;;;;;;9.02;4.85;;;;;;;;;;4960164;28;20103;-58
2022/02/28 07:57:25;;;;;;;10.15;5.47;;;;;;;;;;4959307;28;20033;-58
2022/02/28 07:59:51;;;;;;;7.40;4.45;;;;;;;;;;4949531;28;20057;-58
2022/02/28 08:02:21;;;;;;;12.32;4.80;;;;;;;;;;4960553;28;20084;-58
2022/02/28 08:04:46;;;;;;;10.40;4.80;;;;;;;;;;4961648;28;20039;-58
2022/02/28 08:07:14;;;;;;;13.18;4.95;;;;;;;;;;4958697;28;20082;-57
2022/02/28 08:09:42;;;;;;;7.80;4.60;;;;;;;;;;4943642;28;20046;-59
2022/02/28 08:12:10;;;;;;;9.57;4.60;;;;;;;;;;4958734;28;20035;-58
2022/02/28 08:14:39;;;;;;;9.60;5.47;;;;;;;;;;4946781;28;20030;-59
2022/02/28 08:17:04;;;;;;;8.95;4.70;;;;;;;;;;4949272;28;20045;-58
2022/02/28 08:19:32;;;;;;;11.57;5.20;;;;;;;;;;4961941;28;20034;-58
2022/02/28 08:21:57;;;;;;;8.43;4.53;;;;;;;;;;4944886;28;20125;-58
2022/02/28 08:24:23;;;;;;;7.25;4.35;;;;;;;;;;4959602;28;20043;-58
2022/02/28 08:26:51;;;;;;;11.30;5.00;;;;;;;;;;4943966;28;20045;-58
2022/02/28 08:29:16;;;;;;;8.77;5.10;;;;;;;;;;4956878;28;20030;-58
2022/02/28 08:31:42;;;;;;;9.02;4.63;;;;;;;;;;4958589;28;20054;-58
2022/02/28 08:34:09;;;;;;;10.15;5.18;;;;;;;;;;4959822;28;20045;-58
2022/02/28 08:36:34;;;;;;;8.82;4.63;;;;;;;;;;4938865;28;20671;-60
2022/02/28 08:39:02;;;;;;;5.70;3.90;;;;;;;;;;4939728;28;20027;-59
2022/02/28 08:41:27;;;;;;;9.40;4.72;;;;;;;;;;4940832;28;20027;-57
2022/02/28 08:43:55;;;;;;;6.88;4.13;;;;;;;;;;4940507;28;20609;-58
2022/02/28 08:46:21;;;;;;;8.27;4.60;;;;;;;;;;4926751;28;20715;-58
2022/02/28 08:48:49;;;;;;;8.07;4.72;;;;;;;;;;4928790;28;20417;-58
2022/02/28 08:51:14;;;;;;;11.68;4.97;;;;;;;;;;4937049;28;20039;-61
2022/02/28 08:53:42;;;;;;;7.40;4.35;;;;;;;;;;4922562;28;20054;-59
2022/02/28 08:56:13;;;;;;;9.70;5.10;;;;;;;;;;4921834;28;20039;-60
2022/02/28 08:58:40;;;;;;;9.43;4.82;;;;;;;;;;4927436;28;20035;-60
2022/02/28 09:01:13;;;;;;;7.88;4.22;;;;;;;;;;4940167;28;20086;-59
2022/02/28 09:03:38;;;;;;;12.40;5.07;;;;;;;;;;4920543;28;20034;-61
2022/02/28 09:06:06;;;;;;;7.75;4.30;;;;;;;;;;4927289;28;20035;-61
2022/02/28 09:08:31;;;;;;;18.08;4.18;;;;;;;;;;4921891;28;20070;-59
2022/02/28 09:10:59;;;;;;;10.15;4.65;;;;;;;;;;4938372;28;20116;-59
2022/02/28 09:13:26;;;;;;;8.68;4.47;;;;;;;;;;4939919;28;20722;-59
2022/02/28 09:15:54;;;;;;;6.55;4.00;;;;;;;;;;4940448;28;20035;-59
2022/02/28 09:18:19;;;;;;;10.73;4.72;;;;;;;;;;4939629;28;20039;-59
2022/02/28 09:20:45;;;;;;;10.02;4.28;;;;;;;;;;4928115;28;20050;-59
2022/02/28 09:23:10;;;;;;;10.48;4.32;;;;;;;;;;4925988;28;20035;-59
2022/02/28 09:25:40;;;;;;;7.30;3.83;;;;;;;;;;4926822;28;20078;-60
2022/02/28 09:28:08;;;;;;;8.90;4.15;;;;;;;;;;4907814;28;20034;-61
2022/02/28 09:30:33;;;;;;;6.97;4.50;;;;;;;;;;4937498;28;22105;-61
2022/02/28 09:33:01;;;;;;;9.25;4.55;;;;;;;;;;4910400;28;20055;-61
2022/02/28 09:35:29;;;;;;;7.80;4.18;;;;;;;;;;4926453;28;20041;-61
2022/02/28 09:37:54;;;;;;;9.45;4.30;;;;;;;;;;4954121;28;20611;-61
2022/02/28 09:40:25;;;;;;;7.70;3.60;;;;;;;;;;4913928;28;20038;-60
2022/02/28 09:42:57;;;;;;;7.20;4.20;;;;;;;;;;4941786;28;20118;-62
2022/02/28 09:45:23;;;;;;;8.00;4.00;;;;;;;;;;4959151;28;20058;-60
2022/02/28 09:47:54;;;;;;;9.35;4.53;;;;;;;;;;4958529;28;20117;-61
2022/02/28 09:50:20;;;;;;;8.10;4.00;;;;;;;;;;4958107;28;20043;-62
2022/02/28 09:52:48;;;;;;;8.30;4.10;;;;;;;;;;4924427;28;20745;-62
2022/02/28 09:55:16;;;;;;;11.00;3.67;;;;;;;;;;4957408;28;20045;-62
2022/02/28 09:57:46;;;;;;;9.23;3.92;;;;;;;;;;4943782;28;20066;-62
2022/02/28 10:00:16;;;;;;;9.38;3.95;;;;;;;;;;4941977;28;20058;-62
2022/02/28 10:02:44;;;;;;;8.18;3.67;;;;;;;;;;4959600;28;20072;-61
2022/02/28 10:05:11;;;;;;;7.55;3.65;;;;;;;;;;4945245;28;20192;-61
2022/02/28 10:07:49;;;;;;;9.02;4.47;;;;;;;;;;4942880;28;20477;-61
2022/02/28 10:10:15;;;;;;;8.02;3.70;;;;;;;;;;4949046;28;20034;-62
2022/02/28 10:12:41;;;;;;;7.50;3.85;;;;;;;;;;4962088;28;20026;-62
2022/02/28 10:15:08;;;;;;;6.90;3.72;;;;;;;;;;4950637;28;20030;-61
2022/02/28 10:18:00;;;;;;;7.53;3.97;;;;;;;;;;4960823;28;20038;-62
2022/02/28 10:20:33;;;;;;;8.43;4.25;;;;;;;;;;4943274;28;20574;-62
2022/02/28 10:23:08;;;;;;;6.65;4.00;;;;;;;;;;4962205;28;20173;-60
2022/02/28 10:25:37;;;;;;;8.57;3.30;;;;;;;;;;4947189;28;20113;-62
2022/02/28 10:28:09;;;;;;;5.55;3.40;;;;;;;;;;4930847;28;20098;-61
2022/02/28 10:30:37;;;;;;;8.00;4.00;;;;;;;;;;4957906;28;20040;-62
2022/02/28 10:33:14;;;;;;;8.25;4.00;;;;;;;;;;4947960;28;20526;-62
2022/02/28 10:38:25;;;;;;;8.43;3.78;;;;;;;;;;4962729;28;20038;-61
2022/02/28 10:40:54;;;;;;;8.68;3.70;;;;;;;;;;4959804;28;20043;-61
2022/02/28 10:43:22;;;;;;;6.70;4.10;;;;;;;;;;4933898;28;20038;-61
2022/02/28 10:45:48;;;;;;;8.27;4.22;;;;;;;;;;4962349;28;20035;-62
2022/02/28 10:48:16;;;;;;;9.82;4.20;;;;;;;;;;4949972;28;21402;-62
2022/02/28 10:50:46;;;;;;;7.50;4.10;;;;;;;;;;4919445;28;20034;-64
2022/02/28 10:53:14;;;;;;;7.40;3.97;;;;;;;;;;4962144;28;20517;-61
2022/02/28 10:55:39;;;;;;;8.25;4.10;;;;;;;;;;4946830;28;20082;-62
2022/02/28 10:58:07;;;;;;;6.90;3.85;;;;;;;;;;4940180;28;20954;-61
2022/02/28 11:00:49;;;;;;;8.07;3.50;;;;;;;;;;4947877;28;20057;-61
2022/02/28 11:03:17;;;;;;;7.43;4.25;;;;;;;;;;4947676;28;20039;-62
2022/02/28 11:05:56;;;;;;;8.02;3.78;;;;;;;;;;4950169;28;20042;-61
2022/02/28 11:08:25;;;;;;;9.35;4.07;;;;;;;;;;4947309;28;20035;-62
2022/02/28 11:10:56;;;;;;;6.15;3.42;;;;;;;;;;4948026;28;20066;-62
2022/02/28 11:13:25;;;;;;;5.53;3.60;;;;;;;;;;4961304;28;20033;-62
2022/02/28 11:15:50;;;;;;;6.75;3.83;;;;;;;;;;4961663;28;20039;-62
2022/02/28 11:18:20;;;;;;;5.07;3.50;;;;;;;;;;4925250;28;20041;-61
2022/02/28 11:20:55;;;;;;;5.43;3.60;;;;;;;;;;4945384;28;20030;-61
2022/02/28 11:23:21;;;;;;;5.25;3.33;;;;;;;;;;4961542;28;20043;-61
2022/02/28 11:25:51;;;;;;;5.85;3.60;;;;;;;;;;4960215;28;20030;-61
2022/02/28 11:28:17;;;;;;;5.03;3.63;;;;;;;;;;4947597;28;20043;-62
2022/02/28 11:30:45;;;;;;;10.15;3.60;;;;;;;;;;4960341;28;20037;-62
2022/02/28 11:33:15;;;;;;;4.70;3.42;;;;;;;;;;4947283;28;20715;-62
2022/02/28 11:35:49;;;;;;;5.82;3.97;;;;;;;;;;4947816;28;20488;-62
2022/02/28 11:38:16;;;;;;;5.00;3.33;;;;;;;;;;4943373;28;20136;-61
2022/02/28 11:40:43;;;;;;;5.88;3.53;;;;;;;;;;4959933;28;20035;-63
2022/02/28 11:43:13;;;;;;;8.07;3.97;;;;;;;;;;4941950;28;20049;-62
2022/02/28 11:45:51;;;;;;;8.48;3.58;;;;;;;;;;4962069;28;20741;-62
2022/02/28 11:48:19;;;;;;;4.60;3.33;;;;;;;;;;4944193;28;20141;-61
2022/02/28 11:50:50;;;;;;;5.40;3.72;;;;;;;;;;4942334;28;20053;-63
2022/02/28 11:53:34;;;;;;;6.20;3.67;;;;;;;;;;4945621;28;20039;-62
2022/02/28 11:56:15;;;;;;;6.63;3.25;;;;;;;;;;4957005;28;20318;-62
2022/02/28 11:58:56;;;;;;;8.05;3.55;;;;;;;;;;4942328;28;20034;-60
2022/02/28 12:01:32;;;;;;;5.25;3.25;;;;;;;;;;4932347;28;20037;-63
2022/02/28 12:04:10;;;;;;;6.15;3.45;;;;;;;;;;4958934;28;20053;-63
2022/02/28 12:06:53;;;;;;;4.93;3.50;;;;;;;;;;4959884;28;20037;-63
2022/02/28 12:12:13;;;;;;;7.90;3.75;;;;;;;;;;4959285;28;20054;-63
2022/02/28 12:15:03;;;;;;;5.30;3.10;;;;;;;;;;4955782;28;20067;-64
2022/02/28 12:17:34;;;;;;;5.35;3.67;;;;;;;;;;4919660;28;20058;-63
2022/02/28 12:20:19;;;;;;;6.07;3.47;;;;;;;;;;4959768;28;20034;-63
2022/02/28 12:22:51;;;;;;;4.78;3.08;;;;;;;;;;4960105;28;20034;-63
2022/02/28 12:25:30;;;;;;;5.35;3.35;;;;;;;;;;4958720;28;20054;-63
2022/02/28 12:28:12;;;;;;;5.60;3.42;;;;;;;;;;4954870;28;20150;-62
2022/02/28 12:30:40;;;;;;;6.13;3.63;;;;;;;;;;4924449;28;21090;-63
2022/02/28 12:33:08;;;;;;;6.03;3.53;;;;;;;;;;4961087;28;20108;-63
2022/02/28 12:35:39;;;;;;;4.63;3.40;;;;;;;;;;4960493;28;20092;-63
2022/02/28 12:38:05;;;;;;;5.45;3.63;;;;;;;;;;4948395;28;20058;-63
2022/02/28 12:40:30;;;;;;;6.40;3.65;;;;;;;;;;4940277;28;20043;-62
2022/02/28 12:42:56;;;;;;;5.93;3.40;;;;;;;;;;4946722;28;20031;-61
2022/02/28 12:45:21;;;;;;;3.88;3.45;;;;;;;;;;4942863;28;20062;-63
2022/02/28 12:47:53;;;;;;;6.20;3.50;;;;;;;;;;4958723;28;20046;-62
2022/02/28 12:50:26;;;;;;;5.43;3.85;;;;;;;;;;4958931;28;20033;-62
2022/02/28 12:52:52;;;;;;;6.15;3.10;;;;;;;;;;4953602;28;20453;-62
2022/02/28 12:55:18;;;;;;;6.30;3.42;;;;;;;;;;4942124;28;20038;-63
2022/02/28 12:57:45;;;;;;;7.28;3.60;;;;;;;;;;4958363;28;20662;-62
2022/02/28 13:00:10;;;;;;;9.43;3.42;;;;;;;;;;4958695;28;20042;-63
2022/02/28 13:02:38;;;;;;;6.80;3.90;;;;;;;;;;4957637;28;20037;-62
2022/02/28 13:05:04;;;;;;;5.53;3.10;;;;;;;;;;4958821;28;20112;-62
2022/02/28 13:07:33;;;;;;;9.80;3.70;;;;;;;;;;4945006;28;20046;-61
2022/02/28 13:10:02;;;;;;;6.68;4.03;;;;;;;;;;4958089;28;20439;-62
2022/02/28 13:12:33;;;;;;;6.97;4.03;;;;;;;;;;4942815;28;20124;-61
2022/02/28 13:15:03;;;;;;;8.30;4.13;;;;;;;;;;4958884;28;20042;-62
2022/02/28 13:17:30;;;;;;;4.57;3.75;;;;;;;;;;4956925;28;20030;-61
2022/02/28 13:19:57;;;;;;;7.25;3.75;;;;;;;;;;4955563;28;20693;-61
2022/02/28 13:22:24;;;;;;;7.88;3.83;;;;;;;;;;4945687;28;20034;-60
2022/02/28 13:24:53;;;;;;;5.43;3.95;;;;;;;;;;4943610;28;20043;-60
2022/02/28 13:27:21;;;;;;;6.15;3.53;;;;;;;;;;4946076;28;22052;-61
2022/02/28 13:29:49;;;;;;;6.72;3.90;;;;;;;;;;4955608;28;20678;-59
2022/02/28 13:32:16;;;;;;;5.45;3.50;;;;;;;;;;4938689;28;20034;-60
2022/02/28 13:34:42;;;;;;;7.07;3.88;;;;;;;;;;4958421;28;20065;-64
2022/02/28 13:37:18;;;;;;;6.28;3.78;;;;;;;;;;4948640;28;20145;-61
2022/02/28 13:39:44;;;;;;;5.55;3.65;;;;;;;;;;4960318;28;20125;-63
2022/02/28 13:42:12;;;;;;;5.60;3.53;;;;;;;;;;4959169;28;20147;-62
2022/02/28 13:44:39;;;;;;;6.28;3.75;;;;;;;;;;4960254;28;20122;-61
2022/02/28 13:47:14;;;;;;;5.82;3.60;;;;;;;;;;4941330;28;20033;-62
2022/02/28 13:49:42;;;;;;;8.00;4.07;;;;;;;;;;4959493;28;20061;-62
2022/02/28 13:52:08;;;;;;;8.95;4.22;;;;;;;;;;4945143;28;20038;-63
2022/02/28 13:54:39;;;;;;;7.15;3.75;;;;;;;;;;4947507;28;20030;-63
2022/02/28 13:57:12;;;;;;;7.97;4.60;;;;;;;;;;4940372;28;20108;-63
2022/02/28 13:59:40;;;;;;;6.88;4.32;;;;;;;;;;4959252;28;21320;-63
2022/02/28 14:02:08;;;;;;;6.53;4.10;;;;;;;;;;4945179;28;20042;-63
2022/02/28 14:04:44;;;;;;;9.65;4.47;;;;;;;;;;4959182;28;20047;-63
2022/02/28 14:07:13;;;;;;;8.00;3.80;;;;;;;;;;4927657;28;20129;-63
2022/02/28 14:09:38;;;;;;;7.18;4.20;;;;;;;;;;4958123;28;20031;-63
2022/02/28 14:12:07;;;;;;;5.28;3.80;;;;;;;;;;4955687;28;20115;-63
2022/02/28 14:14:32;;;;;;;5.55;4.15;;;;;;;;;;4957046;28;20902;-63
2022/02/28 14:17:05;;;;;;;7.55;4.30;;;;;;;;;;4944216;28;20065;-62
2022/02/28 14:19:31;;;;;;;7.50;4.57;;;;;;;;;;4959468;28;20027;-63
2022/02/28 14:22:14;;;;;;;7.60;4.30;;;;;;;;;;4956932;28;20046;-62
2022/02/28 14:24:48;;;;;;;8.55;4.78;;;;;;;;;;4946166;28;20062;-64
2022/02/28 14:27:16;;;;;;;7.15;4.20;;;;;;;;;;4957648;28;20085;-63
2022/02/28 14:29:42;;;;;;;5.88;4.32;;;;;;;;;;4944540;28;20039;-63
2022/02/28 14:32:17;;;;;;;8.45;4.55;;;;;;;;;;4945743;28;20045;-62
2022/02/28 14:34:48;;;;;;;6.18;4.20;;;;;;;;;;4958086;28;20037;-63
2022/02/28 14:37:14;;;;;;;6.97;4.00;;;;;;;;;;4949750;28;20055;-61
2022/02/28 14:39:42;;;;;;;8.75;4.85;;;;;;;;;;4925212;28;20031;-63
2022/02/28 14:42:08;;;;;;;9.45;4.63;;;;;;;;;;4921063;28;20482;-62
2022/02/28 14:44:38;;;;;;;7.45;4.13;;;;;;;;;;4925563;28;20046;-60
2022/02/28 14:47:07;;;;;;;7.93;5.18;;;;;;;;;;4926989;28;20061;-61